• Join FlightAware (Why Join?)
  • Login
  • US Flag 
02:44PM EDT


 

Airport Tracker/Info


-or-


 

Live Flight TrackerFlight Track Log ✈ EJA729 ✈ 26-Jun-2013 ✈ KBFI - KMFR

Flight Track Log - Related Links

Times and Time Zones

All times are in EDT time to prevent confusion due to time zone crossing. See the EJA729 flight status page for this flight to view local times or setup timezone preferences in your user account.

Time Position Orientation Groundspeed Altitude Reporting Facility
EDT Latitude Longitude Course Direction KTS MPH feet Rate Location/Type
11:41AM 47.5206 -122.2961 143° Southeast 160 184 900  Level Seattle Center
11:42AM 47.4772 -122.2478 143° Southeast 210 242 4,700 3,540 Climbing Seattle Center
11:43AM 47.4289 -122.3083 220° Southwest 254 292 8,700 3,420 Climbing Seattle Center
11:44AM 47.4056 -122.4133 252° West 267 307 12,300 3,120 Climbing Seattle Center
11:45AM 47.3764 -122.5283 250° West 298 343 15,100 2,700 Climbing Seattle Center
11:46AM 47.3411 -122.6650 249° West 357 411 17,800 2,700 Climbing Seattle Center
11:47AM 47.3050 -122.8097 250° West 372 428 20,700 2,820 Climbing Seattle Center
11:48AM 47.2681 -122.9517 249° West 375 432 23,500 2,520 Climbing Seattle Center
11:49AM 47.2311 -123.0944 249° West 376 433 25,900 2,220 Climbing Seattle Center
11:50AM 47.1706 -123.2072 232° Southwest 367 422 28,100 1,500 Climbing Seattle Center
11:51AM 47.0617 -123.2111 181° South 392 451 29,000 420 Climbing Seattle Center
11:52AM 46.9214 -123.1992 177° South 422 486 29,000  Level Seattle Center
11:53AM 46.8003 -123.1922 178° South 438 504 29,000  Level Seattle Center
11:54AM 46.6808 -123.1822 177° South 434 499 29,000  Level Seattle Center
11:55AM 46.5625 -123.1767 178° South 432 497 29,000  Level Seattle Center
11:56AM 46.4514 -123.1681 177° South 436 502 29,000  Level Seattle Center
11:57AM 46.3303 -123.1578 177° South 436 502 29,000  Level Seattle Center
11:58AM 46.1861 -123.1475 177° South 435 501 29,000  Level Seattle Center
11:59AM 46.0658 -123.1383 177° South 433 498 29,000  Level Seattle Center
12:00PM 45.9444 -123.1278 177° South 436 502 29,000  Level Seattle Center
12:01PM 45.8219 -123.1194 177° South 438 504 29,000  Level Seattle Center
12:02PM 45.7011 -123.1111 177° South 436 502 29,000  Level Seattle Center
12:03PM 45.5786 -123.1003 176° South 438 504 29,000  Level Seattle Center
12:04PM 45.4558 -123.0914 177° South 442 509 29,000  Level Seattle Center
12:05PM 45.3322 -123.0803 176° South 443 510 29,000  Level Seattle Center
12:06PM 45.2083 -123.0719 177° South 444 511 29,000  Level Seattle Center
12:07PM 45.0831 -123.0628 177° South 447 514 29,000  Level Seattle Center
12:08PM 44.9589 -123.0514 176° South 445 512 29,000  Level Seattle Center
12:09PM 44.8339 -123.0442 178° South 445 512 29,000  Level Seattle Center
12:10PM 44.7097 -123.0336 177° South 443 510 29,000 -120 Level Seattle Center
12:11PM 44.5853 -123.0244 177° South 445 512 28,800 -720 Descending Seattle Center
12:12PM 44.4639 -123.0158 177° South 438 504 27,600 -1,200 Descending Seattle Center
12:13PM 44.3461 -123.0067 177° South 428 493 26,400 -1,320 Descending Seattle Center
12:14PM 44.2089 -122.9975 177° South 424 488 25,000 -1,320 Descending Seattle Center
12:15PM 44.0858 -122.9894 177° South 432 497 23,800 -1,200 Descending Seattle Center
12:16PM 43.9644 -122.9811 177° South 434 499 22,600 -1,200 Descending Seattle Center
12:17PM 43.8461 -122.9736 177° South 427 491 21,400 -1,380 Descending Seattle Center
12:18PM 43.7303 -122.9656 177° South 420 483 19,800 -1,680 Descending Seattle Center
12:19PM 43.6192 -122.9583 177° South 411 473 18,100 -1,680 Descending Seattle Center
12:20PM 43.5144 -122.9494 176° South 388 447 16,500 -1,620 Descending Seattle Center
12:21PM 43.4108 -122.9439 178° South 375 432 14,900 -1,620 Descending Seattle Center
12:22PM 43.3119 -122.9364 177° South 363 418 13,300 -1,440 Descending Seattle Center
12:23PM 43.2183 -122.9311 178° South 345 397 12,000 -720 Descending Seattle Center
12:24PM 43.1272 -122.9242 177° South 333 383 11,900 -60 Descending Seattle Center
12:25PM 43.0369 -122.9178 177° South 328 377 11,900  Level Seattle Center
12:26PM 42.9692 -122.9167 179° South 241 277 11,900 -780 Level Seattle Center
12:27PM 42.9103 -122.9122 177° South 215 247 10,400 -1,620 Descending Seattle Center
12:28PM 42.8517 -122.9206 186° South 213 245 8,700 -1,680 Descending Seattle Center
12:29PM 42.7881 -122.9528 200° South 203 234 7,000 -900 Descending Seattle Center
12:30PM 42.7400 -122.9747 199° South 186 214 6,900  Descending Seattle Center
12:31PM 42.6892 -122.9956 197° South 191 220 7,000  Climbing Seattle Center
12:32PM 42.6411 -123.0144 196° South 183 211 7,000 -600 Level Seattle Center
12:33PM 42.5919 -122.9869 158° South 189 217 5,800 -1,200 Descending Seattle Center
12:35PM 42.5411 -122.9614 160° South 191 220 4,600 -1,140 Descending Seattle Center
12:36PM 42.4917 -122.9353 159° South 191 220 3,600 -960 Descending Seattle Center
12:37PM 42.4469 -122.9114 158° South 162 186 2,700 -840 Descending Seattle Center
12:38PM 42.4089 -122.8908 158° South 149 171 1,900 -720 Descending Seattle Center
12:39PM 42.3739 -122.8717 158° South 134 154 1,300 -300 Descending Seattle Center
12:40PM 42.3714 -122.8706 162° South 16 18 1,400 60 Climbing Seattle Center
12:42PM 42.3667 -122.8667 North  Level FlightAware Approximate